sensor_id;sensor_type;location;lat;lon;timestamp;pressure;altitude;pressure_sealevel;temperature;humidity
63654;BME280;49809;47.418;19.080;2023-09-19T00:01:15;99959.81;;;21.73;69.53
63654;BME280;49809;47.418;19.080;2023-09-19T00:04:48;99959.47;;;21.74;69.51
63654;BME280;49809;47.418;19.080;2023-09-19T00:08:25;99968.53;;;21.69;69.82
63654;BME280;49809;47.418;19.080;2023-09-19T00:12:07;99968.22;;;21.71;69.85
63654;BME280;49809;47.418;19.080;2023-09-19T00:15:40;99965.50;;;21.59;70.08
63654;BME280;49809;47.418;19.080;2023-09-19T00:18:56;99966.62;;;21.58;70.24
63654;BME280;49809;47.418;19.080;2023-09-19T00:22:40;99968.41;;;21.54;70.59
63654;BME280;49809;47.418;19.080;2023-09-19T00:26:18;99963.66;;;21.51;70.83
63654;BME280;49809;47.418;19.080;2023-09-19T00:30:00;99960.31;;;21.54;70.51
63654;BME280;49809;47.418;19.080;2023-09-19T00:33:51;99969.06;;;21.51;70.86
63654;BME280;49809;47.418;19.080;2023-09-19T00:37:37;99958.16;;;21.47;71.10
63654;BME280;49809;47.418;19.080;2023-09-19T00:41:06;99962.75;;;21.47;71.58
63654;BME280;49809;47.418;19.080;2023-09-19T00:44:34;99951.72;;;21.40;71.54
63654;BME280;49809;47.418;19.080;2023-09-19T00:48:01;99952.41;;;21.37;71.96
63654;BME280;49809;47.418;19.080;2023-09-19T00:51:40;99955.75;;;21.34;72.06
63654;BME280;49809;47.418;19.080;2023-09-19T00:55:21;99953.84;;;21.34;72.19
63654;BME280;49809;47.418;19.080;2023-09-19T00:58:49;99955.97;;;21.29;72.71
63654;BME280;49809;47.418;19.080;2023-09-19T01:02:24;99945.97;;;21.29;72.64
63654;BME280;49809;47.418;19.080;2023-09-19T01:06:27;99949.78;;;21.28;72.88
63654;BME280;49809;47.418;19.080;2023-09-19T01:10:09;99951.09;;;21.22;73.13
63654;BME280;49809;47.418;19.080;2023-09-19T01:13:58;99954.84;;;21.30;72.90
63654;BME280;49809;47.418;19.080;2023-09-19T01:17:35;99954.97;;;21.33;72.97
63654;BME280;49809;47.418;19.080;2023-09-19T01:21:21;99955.09;;;21.37;72.79
63654;BME280;49809;47.418;19.080;2023-09-19T01:29:42;99953.97;;;21.38;73.01
63654;BME280;49809;47.418;19.080;2023-09-19T01:33:25;99945.44;;;21.36;73.06
63654;BME280;49809;47.418;19.080;2023-09-19T01:37:10;99947.47;;;21.39;73.13
63654;BME280;49809;47.418;19.080;2023-09-19T01:40:57;99948.78;;;21.33;73.16
63654;BME280;49809;47.418;19.080;2023-09-19T01:44:51;99947.41;;;21.27;73.98
63654;BME280;49809;47.418;19.080;2023-09-19T01:52:22;99930.56;;;21.17;74.73
63654;BME280;49809;47.418;19.080;2023-09-19T01:56:24;99939.91;;;21.11;74.98
63654;BME280;49809;47.418;19.080;2023-09-19T02:00:02;99940.31;;;21.01;75.54
63654;BME280;49809;47.418;19.080;2023-09-19T02:03:30;99946.88;;;20.92;76.43
63654;BME280;49809;47.418;19.080;2023-09-19T02:07:12;99944.94;;;20.80;76.93
63654;BME280;49809;47.418;19.080;2023-09-19T02:10:39;99947.22;;;20.69;77.77
63654;BME280;49809;47.418;19.080;2023-09-19T02:14:07;99952.78;;;20.64;78.26
63654;BME280;49809;47.418;19.080;2023-09-19T02:17:45;99957.41;;;20.55;78.57
63654;BME280;49809;47.418;19.080;2023-09-19T02:21:12;99949.22;;;20.52;79.10
63654;BME280;49809;47.418;19.080;2023-09-19T02:24:42;99947.34;;;20.44;79.33
63654;BME280;49809;47.418;19.080;2023-09-19T02:28:48;99943.44;;;20.41;79.86
63654;BME280;49809;47.418;19.080;2023-09-19T02:32:24;99928.72;;;20.38;80.01
63654;BME280;49809;47.418;19.080;2023-09-19T02:35:59;99937.25;;;20.41;79.96
63654;BME280;49809;47.418;19.080;2023-09-19T02:39:34;99956.41;;;20.39;79.94
63654;BME280;49809;47.418;19.080;2023-09-19T02:42:58;99953.38;;;20.41;79.85
63654;BME280;49809;47.418;19.080;2023-09-19T02:46:22;99960.78;;;20.44;79.67
63654;BME280;49809;47.418;19.080;2023-09-19T02:49:39;99959.88;;;20.39;79.84
63654;BME280;49809;47.418;19.080;2023-09-19T02:52:47;99954.06;;;20.37;80.04
63654;BME280;49809;47.418;19.080;2023-09-19T02:56:25;99947.22;;;20.40;79.76
63654;BME280;49809;47.418;19.080;2023-09-19T02:59:54;99947.50;;;20.47;79.33
63654;BME280;49809;47.418;19.080;2023-09-19T03:03:17;99944.94;;;20.51;78.95
63654;BME280;49809;47.418;19.080;2023-09-19T03:06:57;99936.88;;;20.51;78.63
63654;BME280;49809;47.418;19.080;2023-09-19T03:10:30;99937.38;;;20.44;79.03
63654;BME280;49809;47.418;19.080;2023-09-19T03:14:04;99937.78;;;20.25;79.63
63654;BME280;49809;47.418;19.080;2023-09-19T03:17:59;99942.88;;;20.18;80.05
63654;BME280;49809;47.418;19.080;2023-09-19T03:21:38;99951.72;;;20.19;80.21
63654;BME280;49809;47.418;19.080;2023-09-19T03:24:57;99943.66;;;20.19;80.28
63654;BME280;49809;47.418;19.080;2023-09-19T03:28:28;99944.91;;;20.21;80.30
63654;BME280;49809;47.418;19.080;2023-09-19T03:31:50;99938.09;;;20.24;80.28
63654;BME280;49809;47.418;19.080;2023-09-19T03:35:27;99950.16;;;20.18;80.55
63654;BME280;49809;47.418;19.080;2023-09-19T03:38:55;99950.00;;;20.14;81.04
63654;BME280;49809;47.418;19.080;2023-09-19T03:42:32;99940.56;;;20.08;81.64
63654;BME280;49809;47.418;19.080;2023-09-19T03:46:15;99947.22;;;20.02;82.21
63654;BME280;49809;47.418;19.080;2023-09-19T03:49:43;99944.84;;;20.01;82.47
63654;BME280;49809;47.418;19.080;2023-09-19T03:53:11;99945.00;;;20.04;82.74
63654;BME280;49809;47.418;19.080;2023-09-19T03:56:45;99950.03;;;20.06;83.17
63654;BME280;49809;47.418;19.080;2023-09-19T04:00:15;99950.38;;;20.04;83.65
63654;BME280;49809;47.418;19.080;2023-09-19T04:04:10;99948.63;;;20.08;83.85
63654;BME280;49809;47.418;19.080;2023-09-19T04:07:57;99950.97;;;20.10;83.89
63654;BME280;49809;47.418;19.080;2023-09-19T04:11:24;99947.78;;;20.16;83.95
63654;BME280;49809;47.418;19.080;2023-09-19T04:15:23;99949.50;;;20.21;83.80
63654;BME280;49809;47.418;19.080;2023-09-19T04:18:50;99950.94;;;20.18;83.84
63654;BME280;49809;47.418;19.080;2023-09-19T04:22:24;99950.78;;;20.15;84.18
63654;BME280;49809;47.418;19.080;2023-09-19T04:26:02;99970.13;;;20.08;84.74
63654;BME280;49809;47.418;19.080;2023-09-19T04:29:31;99973.59;;;20.09;85.35
63654;BME280;49809;47.418;19.080;2023-09-19T04:33:33;99965.19;;;20.10;85.34
63654;BME280;49809;47.418;19.080;2023-09-19T04:37:26;99976.59;;;20.07;85.17
63654;BME280;49809;47.418;19.080;2023-09-19T04:40:57;99980.50;;;20.18;84.95
63654;BME280;49809;47.418;19.080;2023-09-19T04:44:42;99987.09;;;20.29;84.10
63654;BME280;49809;47.418;19.080;2023-09-19T04:48:09;99990.44;;;20.26;83.72
63654;BME280;49809;47.418;19.080;2023-09-19T04:51:33;99990.72;;;20.33;83.79
63654;BME280;49809;47.418;19.080;2023-09-19T04:55:02;99997.38;;;20.36;83.06
63654;BME280;49809;47.418;19.080;2023-09-19T04:58:50;100001.12;;;20.44;81.68
63654;BME280;49809;47.418;19.080;2023-09-19T05:02:13;100001.69;;;20.58;80.70
63654;BME280;49809;47.418;19.080;2023-09-19T05:05:41;100004.41;;;20.49;81.35
63654;BME280;49809;47.418;19.080;2023-09-19T05:09:17;100010.72;;;20.53;80.90
63654;BME280;49809;47.418;19.080;2023-09-19T05:12:59;100010.94;;;20.39;81.59
63654;BME280;49809;47.418;19.080;2023-09-19T05:16:37;100016.37;;;20.31;82.70
63654;BME280;49809;47.418;19.080;2023-09-19T05:20:41;100025.06;;;20.28;83.22
63654;BME280;49809;47.418;19.080;2023-09-19T05:24:35;100034.19;;;19.89;84.91
63654;BME280;49809;47.418;19.080;2023-09-19T05:28:19;100047.13;;;19.87;85.24
63654;BME280;49809;47.418;19.080;2023-09-19T05:31:22;100045.88;;;19.76;85.60
63654;BME280;49809;47.418;19.080;2023-09-19T05:34:27;100043.94;;;19.85;85.32
63654;BME280;49809;47.418;19.080;2023-09-19T05:38:03;100043.19;;;19.76;85.38
63654;BME280;49809;47.418;19.080;2023-09-19T05:42:16;100054.69;;;19.85;84.20
63654;BME280;49809;47.418;19.080;2023-09-19T05:45:55;100052.81;;;19.94;83.29
63654;BME280;49809;47.418;19.080;2023-09-19T05:49:20;100045.03;;;20.01;82.81
63654;BME280;49809;47.418;19.080;2023-09-19T05:52:51;100052.69;;;20.28;81.84
63654;BME280;49809;47.418;19.080;2023-09-19T05:56:35;100043.25;;;20.22;81.58
63654;BME280;49809;47.418;19.080;2023-09-19T05:59:39;100055.75;;;20.18;81.68
63654;BME280;49809;47.418;19.080;2023-09-19T06:03:23;100062.84;;;20.31;81.17
63654;BME280;49809;47.418;19.080;2023-09-19T06:06:27;100060.06;;;20.02;81.66
63654;BME280;49809;47.418;19.080;2023-09-19T06:09:35;100061.69;;;19.69;82.61
63654;BME280;49809;47.418;19.080;2023-09-19T06:12:42;100062.75;;;19.85;82.19
63654;BME280;49809;47.418;19.080;2023-09-19T06:16:01;100068.94;;;19.77;83.12
63654;BME280;49809;47.418;19.080;2023-09-19T06:19:09;100063.56;;;19.68;82.92
63654;BME280;49809;47.418;19.080;2023-09-19T06:22:35;100082.22;;;19.47;83.71
63654;BME280;49809;47.418;19.080;2023-09-19T06:25:40;100085.97;;;19.38;84.69
63654;BME280;49809;47.418;19.080;2023-09-19T06:29:06;100084.75;;;19.52;83.59
63654;BME280;49809;47.418;19.080;2023-09-19T06:32:44;100095.25;;;19.23;84.94
63654;BME280;49809;47.418;19.080;2023-09-19T06:35:53;100094.31;;;19.28;84.96
63654;BME280;49809;47.418;19.080;2023-09-19T06:39:21;100098.44;;;19.25;85.53
63654;BME280;49809;47.418;19.080;2023-09-19T06:42:31;100093.50;;;19.27;85.78
63654;BME280;49809;47.418;19.080;2023-09-19T06:45:54;100098.72;;;19.15;86.76
63654;BME280;49809;47.418;19.080;2023-09-19T06:49:07;100101.09;;;19.25;86.42
63654;BME280;49809;47.418;19.080;2023-09-19T06:52:12;100101.72;;;19.22;86.46
63654;BME280;49809;47.418;19.080;2023-09-19T06:55:36;100105.53;;;19.21;86.86
63654;BME280;49809;47.418;19.080;2023-09-19T06:58:42;100120.31;;;19.10;87.41
63654;BME280;49809;47.418;19.080;2023-09-19T07:02:11;100130.12;;;19.23;87.07
63654;BME280;49809;47.418;19.080;2023-09-19T07:05:48;100136.75;;;19.17;88.50
63654;BME280;49809;47.418;19.080;2023-09-19T07:09:02;100143.84;;;18.74;93.47
63654;BME280;49809;47.418;19.080;2023-09-19T07:12:08;100144.84;;;18.78;98.36
63654;BME280;49809;47.418;19.080;2023-09-19T07:15:59;100154.25;;;18.44;100.00
63654;BME280;49809;47.418;19.080;2023-09-19T07:19:36;100156.63;;;18.23;100.00
63654;BME280;49809;47.418;19.080;2023-09-19T07:23:48;100160.88;;;18.02;100.00
63654;BME280;49809;47.418;19.080;2023-09-19T08:13:05;100214.84;;;18.09;100.00
63654;BME280;49809;47.418;19.080;2023-09-19T08:17:41;100229.97;;;17.78;100.00
63654;BME280;49809;47.418;19.080;2023-09-19T08:21:59;100236.63;;;17.53;100.00
63654;BME280;49809;47.418;19.080;2023-09-19T08:25:48;100244.66;;;17.53;100.00
63654;BME280;49809;47.418;19.080;2023-09-19T08:50:31;100278.88;;;17.56;100.00
63654;BME280;49809;47.418;19.080;2023-09-19T08:54:16;100290.75;;;17.50;100.00
63654;BME280;49809;47.418;19.080;2023-09-19T08:58:03;100297.28;;;17.30;100.00
63654;BME280;49809;47.418;19.080;2023-09-19T09:09:45;100311.03;;;17.24;100.00
63654;BME280;49809;47.418;19.080;2023-09-19T11:02:26;100300.34;;;20.53;96.53
63654;BME280;49809;47.418;19.080;2023-09-19T11:16:18;100310.12;;;20.83;93.77
63654;BME280;49809;47.418;19.080;2023-09-19T11:28:30;100308.28;;;23.46;80.78
63654;BME280;49809;47.418;19.080;2023-09-19T11:31:48;100309.50;;;24.09;75.24
63654;BME280;49809;47.418;19.080;2023-09-19T11:39:26;100300.63;;;24.49;74.30
63654;BME280;49809;47.418;19.080;2023-09-19T11:43:29;100297.22;;;24.00;71.82
63654;BME280;49809;47.418;19.080;2023-09-19T11:47:43;100297.56;;;24.50;70.05
63654;BME280;49809;47.418;19.080;2023-09-19T11:51:17;100283.94;;;23.95;70.30
63654;BME280;49809;47.418;19.080;2023-09-19T11:55:44;100282.34;;;23.21;71.41
63654;BME280;49809;47.418;19.080;2023-09-19T11:58:58;100287.13;;;23.48;72.05
63654;BME280;49809;47.418;19.080;2023-09-19T12:03:09;100288.25;;;24.36;67.31
63654;BME280;49809;47.418;19.080;2023-09-19T12:11:27;100274.37;;;23.85;68.80
63654;BME280;49809;47.418;19.080;2023-09-19T12:15:36;100282.25;;;23.78;71.32
63654;BME280;49809;47.418;19.080;2023-09-19T12:19:35;100271.97;;;24.20;67.60
63654;BME280;49809;47.418;19.080;2023-09-19T12:23:21;100276.44;;;24.16;65.90
63654;BME280;49809;47.418;19.080;2023-09-19T12:27:04;100271.34;;;24.39;66.11
63654;BME280;49809;47.418;19.080;2023-09-19T12:31:10;100280.13;;;23.96;66.85
63654;BME280;49809;47.418;19.080;2023-09-19T12:34:59;100290.12;;;24.19;67.85
63654;BME280;49809;47.418;19.080;2023-09-19T12:39:00;100281.84;;;23.76;67.58
63654;BME280;49809;47.418;19.080;2023-09-19T12:43:11;100292.50;;;23.97;66.36
63654;BME280;49809;47.418;19.080;2023-09-19T12:47:29;100289.91;;;23.39;67.95
63654;BME280;49809;47.418;19.080;2023-09-19T12:52:16;100286.69;;;23.70;68.22
63654;BME280;49809;47.418;19.080;2023-09-19T13:08:27;100289.09;;;24.12;63.92
63654;BME280;49809;47.418;19.080;2023-09-19T13:11:48;100281.91;;;24.04;65.03
63654;BME280;49809;47.418;19.080;2023-09-19T13:16:04;100287.31;;;24.04;64.64
63654;BME280;49809;47.418;19.080;2023-09-19T13:19:56;100277.22;;;23.76;65.23
63654;BME280;49809;47.418;19.080;2023-09-19T13:24:50;100293.19;;;23.94;65.03
63654;BME280;49809;47.418;19.080;2023-09-19T13:28:49;100272.50;;;23.61;64.86
63654;BME280;49809;47.418;19.080;2023-09-19T13:32:47;100279.19;;;23.43;65.94
63654;BME280;49809;47.418;19.080;2023-09-19T13:37:56;100283.75;;;23.63;65.80
63654;BME280;49809;47.418;19.080;2023-09-19T14:15:39;100326.72;;;23.32;65.33
63654;BME280;49809;47.418;19.080;2023-09-19T14:23:38;100325.13;;;23.31;65.39
63654;BME280;49809;47.418;19.080;2023-09-19T14:35:26;100321.03;;;23.13;67.46
63654;BME280;49809;47.418;19.080;2023-09-19T14:38:33;100323.94;;;23.08;67.24
63654;BME280;49809;47.418;19.080;2023-09-19T14:42:33;100313.66;;;22.89;67.97
63654;BME280;49809;47.418;19.080;2023-09-19T14:45:42;100322.13;;;23.00;68.80
63654;BME280;49809;47.418;19.080;2023-09-19T14:49:05;100314.00;;;23.00;68.44
63654;BME280;49809;47.418;19.080;2023-09-19T14:52:32;100324.16;;;23.03;67.99
63654;BME280;49809;47.418;19.080;2023-09-19T14:55:43;100318.75;;;23.03;67.27
63654;BME280;49809;47.418;19.080;2023-09-19T14:59:20;100319.78;;;23.10;68.13
63654;BME280;49809;47.418;19.080;2023-09-19T15:02:36;100327.44;;;23.08;67.01
63654;BME280;49809;47.418;19.080;2023-09-19T15:05:42;100331.38;;;23.11;65.62
63654;BME280;49809;47.418;19.080;2023-09-19T15:08:53;100330.09;;;22.96;64.95
63654;BME280;49809;47.418;19.080;2023-09-19T15:13:17;100317.91;;;22.90;64.95
63654;BME280;49809;47.418;19.080;2023-09-19T15:16:59;100328.41;;;22.91;65.53
63654;BME280;49809;47.418;19.080;2023-09-19T15:21:11;100330.41;;;22.82;65.31
63654;BME280;49809;47.418;19.080;2023-09-19T15:24:32;100328.47;;;22.83;64.47
63654;BME280;49809;47.418;19.080;2023-09-19T15:28:26;100336.59;;;22.83;65.34
63654;BME280;49809;47.418;19.080;2023-09-19T15:32:07;100337.47;;;22.66;65.06
63654;BME280;49809;47.418;19.080;2023-09-19T15:36:04;100341.84;;;22.59;65.96
63654;BME280;49809;47.418;19.080;2023-09-19T15:39:23;100345.94;;;22.65;65.65
63654;BME280;49809;47.418;19.080;2023-09-19T15:42:54;100350.53;;;22.64;66.60
63654;BME280;49809;47.418;19.080;2023-09-19T15:46:36;100350.53;;;22.43;65.93
63654;BME280;49809;47.418;19.080;2023-09-19T15:49:56;100355.78;;;22.40;67.08
63654;BME280;49809;47.418;19.080;2023-09-19T15:53:03;100355.66;;;22.36;67.15
63654;BME280;49809;47.418;19.080;2023-09-19T15:56:49;100353.69;;;22.25;66.90
63654;BME280;49809;47.418;19.080;2023-09-19T16:00:30;100358.78;;;22.18;67.99
63654;BME280;49809;47.418;19.080;2023-09-19T16:03:39;100350.88;;;22.13;67.47
63654;BME280;49809;47.418;19.080;2023-09-19T16:06:46;100351.06;;;22.07;67.86
63654;BME280;49809;47.418;19.080;2023-09-19T16:09:57;100348.00;;;21.97;68.55
63654;BME280;49809;47.418;19.080;2023-09-19T16:13:02;100351.00;;;21.95;69.33
63654;BME280;49809;47.418;19.080;2023-09-19T16:16:12;100359.91;;;21.79;69.90
63654;BME280;49809;47.418;19.080;2023-09-19T16:19:20;100357.75;;;21.72;70.64
63654;BME280;49809;47.418;19.080;2023-09-19T16:22:30;100357.00;;;21.63;70.73
63654;BME280;49809;47.418;19.080;2023-09-19T16:25:38;100362.25;;;21.51;71.90
63654;BME280;49809;47.418;19.080;2023-09-19T16:29:14;100358.97;;;21.37;72.84
63654;BME280;49809;47.418;19.080;2023-09-19T16:32:41;100364.38;;;21.28;73.27
63654;BME280;49809;47.418;19.080;2023-09-19T16:36:09;100363.94;;;21.17;74.06
63654;BME280;49809;47.418;19.080;2023-09-19T16:39:47;100362.97;;;21.05;74.86
63654;BME280;49809;47.418;19.080;2023-09-19T16:43:09;100364.41;;;20.94;76.34
63654;BME280;49809;47.418;19.080;2023-09-19T16:46:34;100374.88;;;20.69;78.01
63654;BME280;49809;47.418;19.080;2023-09-19T16:54:29;100381.66;;;20.32;80.78
63654;BME280;49809;47.418;19.080;2023-09-19T17:03:45;100388.75;;;19.89;83.45
63654;BME280;49809;47.418;19.080;2023-09-19T17:08:29;100389.63;;;19.76;84.59
63654;BME280;49809;47.418;19.080;2023-09-19T17:16:57;100395.31;;;19.43;87.00
63654;BME280;49809;47.418;19.080;2023-09-19T17:21:53;100405.81;;;19.31;87.88
63654;BME280;49809;47.418;19.080;2023-09-19T17:35:14;100420.37;;;18.94;93.12
63654;BME280;49809;47.418;19.080;2023-09-19T17:39:51;100420.31;;;18.86;93.84
63654;BME280;49809;47.418;19.080;2023-09-19T17:47:49;100438.53;;;18.61;95.77
63654;BME280;49809;47.418;19.080;2023-09-19T17:56:52;100431.69;;;18.42;97.17
63654;BME280;49809;47.418;19.080;2023-09-19T18:01:13;100430.53;;;18.34;98.17
63654;BME280;49809;47.418;19.080;2023-09-19T18:06:14;100435.47;;;18.27;97.88
63654;BME280;49809;47.418;19.080;2023-09-19T18:10:55;100440.47;;;18.20;98.13
63654;BME280;49809;47.418;19.080;2023-09-19T18:15:26;100447.47;;;18.16;99.03
63654;BME280;49809;47.418;19.080;2023-09-19T18:24:57;100446.78;;;17.97;100.00
63654;BME280;49809;47.418;19.080;2023-09-19T18:29:22;100460.84;;;17.89;100.00
63654;BME280;49809;47.418;19.080;2023-09-19T18:33:40;100461.47;;;17.86;100.00
63654;BME280;49809;47.418;19.080;2023-09-19T18:42:22;100467.72;;;17.62;100.00
63654;BME280;49809;47.418;19.080;2023-09-19T18:46:44;100471.56;;;17.56;100.00
63654;BME280;49809;47.418;19.080;2023-09-19T18:50:52;100480.56;;;17.47;100.00
63654;BME280;49809;47.418;19.080;2023-09-19T18:55:44;100470.22;;;17.40;100.00
63654;BME280;49809;47.418;19.080;2023-09-19T19:00:11;100470.56;;;17.33;100.00
63654;BME280;49809;47.418;19.080;2023-09-19T19:04:28;100481.06;;;17.30;100.00
63654;BME280;49809;47.418;19.080;2023-09-19T19:13:02;100487.97;;;17.17;100.00
63654;BME280;49809;47.418;19.080;2023-09-19T19:17:09;100499.81;;;17.11;100.00
63654;BME280;49809;47.418;19.080;2023-09-19T19:21:23;100498.00;;;17.07;100.00
63654;BME280;49809;47.418;19.080;2023-09-19T19:30:02;100500.09;;;16.91;100.00
63654;BME280;49809;47.418;19.080;2023-09-19T19:34:48;100498.28;;;16.86;100.00
63654;BME280;49809;47.418;19.080;2023-09-19T19:39:15;100501.03;;;16.81;100.00
63654;BME280;49809;47.418;19.080;2023-09-19T19:47:41;100508.94;;;16.68;100.00
63654;BME280;49809;47.418;19.080;2023-09-19T19:55:12;100516.25;;;16.57;100.00
63654;BME280;49809;47.418;19.080;2023-09-19T19:58:48;100520.59;;;16.53;100.00
63654;BME280;49809;47.418;19.080;2023-09-19T20:02:25;100517.69;;;16.49;100.00
63654;BME280;49809;47.418;19.080;2023-09-19T20:05:56;100522.41;;;16.58;100.00
63654;BME280;49809;47.418;19.080;2023-09-19T20:09:55;100517.38;;;16.51;100.00
63654;BME280;49809;47.418;19.080;2023-09-19T20:13:17;100522.25;;;16.49;100.00
63654;BME280;49809;47.418;19.080;2023-09-19T20:16:44;100521.28;;;16.40;100.00
63654;BME280;49809;47.418;19.080;2023-09-19T20:20:08;100520.97;;;16.41;100.00
63654;BME280;49809;47.418;19.080;2023-09-19T20:24:03;100523.94;;;16.40;100.00
63654;BME280;49809;47.418;19.080;2023-09-19T20:27:37;100525.06;;;16.34;100.00
63654;BME280;49809;47.418;19.080;2023-09-19T20:31:07;100525.41;;;16.27;100.00
63654;BME280;49809;47.418;19.080;2023-09-19T20:34:35;100529.94;;;16.27;100.00
63654;BME280;49809;47.418;19.080;2023-09-19T20:38:10;100519.78;;;16.29;100.00
63654;BME280;49809;47.418;19.080;2023-09-19T20:41:36;100526.78;;;16.25;100.00
63654;BME280;49809;47.418;19.080;2023-09-19T20:45:27;100524.09;;;16.25;100.00
63654;BME280;49809;47.418;19.080;2023-09-19T20:49:04;100525.50;;;16.17;100.00
63654;BME280;49809;47.418;19.080;2023-09-19T20:52:20;100528.16;;;16.17;100.00
63654;BME280;49809;47.418;19.080;2023-09-19T20:55:47;100537.59;;;16.09;100.00
63654;BME280;49809;47.418;19.080;2023-09-19T20:59:51;100532.03;;;16.06;100.00
63654;BME280;49809;47.418;19.080;2023-09-19T21:03:15;100529.38;;;16.06;100.00
63654;BME280;49809;47.418;19.080;2023-09-19T21:07:03;100533.91;;;16.05;100.00
63654;BME280;49809;47.418;19.080;2023-09-19T21:10:40;100543.31;;;15.98;100.00
63654;BME280;49809;47.418;19.080;2023-09-19T21:14:30;100549.50;;;15.93;100.00
63654;BME280;49809;47.418;19.080;2023-09-19T21:18:00;100538.75;;;15.98;100.00
63654;BME280;49809;47.418;19.080;2023-09-19T21:21:37;100542.47;;;16.02;100.00
63654;BME280;49809;47.418;19.080;2023-09-19T21:24:41;100537.59;;;16.09;100.00
63654;BME280;49809;47.418;19.080;2023-09-19T21:28:11;100533.91;;;16.05;100.00
63654;BME280;49809;47.418;19.080;2023-09-19T21:31:55;100540.00;;;16.11;100.00
63654;BME280;49809;47.418;19.080;2023-09-19T21:35:44;100537.59;;;16.09;100.00
63654;BME280;49809;47.418;19.080;2023-09-19T21:39:03;100536.00;;;16.08;100.00
63654;BME280;49809;47.418;19.080;2023-09-19T21:42:26;100541.87;;;16.11;100.00
63654;BME280;49809;47.418;19.080;2023-09-19T21:46:01;100555.22;;;16.11;100.00
63654;BME280;49809;47.418;19.080;2023-09-19T21:49:06;100558.97;;;16.09;100.00
63654;BME280;49809;47.418;19.080;2023-09-19T21:52:10;100561.06;;;16.13;100.00
63654;BME280;49809;47.418;19.080;2023-09-19T21:56:01;100572.47;;;16.23;100.00
63654;BME280;49809;47.418;19.080;2023-09-19T21:59:45;100561.72;;;16.28;100.00
63654;BME280;49809;47.418;19.080;2023-09-19T22:02:54;100551.63;;;16.25;100.00
63654;BME280;49809;47.418;19.080;2023-09-19T22:06:39;100552.97;;;16.23;100.00
63654;BME280;49809;47.418;19.080;2023-09-19T22:09:46;100554.09;;;16.17;100.00
63654;BME280;49809;47.418;19.080;2023-09-19T22:13:20;100559.50;;;16.12;100.00
63654;BME280;49809;47.418;19.080;2023-09-19T22:16:56;100563.81;;;16.02;100.00
63654;BME280;49809;47.418;19.080;2023-09-19T22:20:54;100563.91;;;15.97;100.00
63654;BME280;49809;47.418;19.080;2023-09-19T22:24:22;100561.22;;;15.97;100.00
63654;BME280;49809;47.418;19.080;2023-09-19T22:27:48;100554.03;;;15.93;100.00
63654;BME280;49809;47.418;19.080;2023-09-19T22:30:53;100557.53;;;15.88;100.00
63654;BME280;49809;47.418;19.080;2023-09-19T22:34:32;100557.31;;;15.85;100.00
63654;BME280;49809;47.418;19.080;2023-09-19T22:37:58;100554.41;;;15.81;100.00
63654;BME280;49809;47.418;19.080;2023-09-19T22:41:35;100567.00;;;15.76;100.00
63654;BME280;49809;47.418;19.080;2023-09-19T22:45:02;100573.91;;;15.82;100.00
63654;BME280;49809;47.418;19.080;2023-09-19T22:48:43;100568.53;;;15.87;100.00
63654;BME280;49809;47.418;19.080;2023-09-19T22:52:12;100569.31;;;15.87;100.00
63654;BME280;49809;47.418;19.080;2023-09-19T22:55:46;100582.69;;;15.82;100.00
63654;BME280;49809;47.418;19.080;2023-09-19T22:59:30;100583.78;;;15.81;100.00
63654;BME280;49809;47.418;19.080;2023-09-19T23:03:08;100593.41;;;15.77;100.00
63654;BME280;49809;47.418;19.080;2023-09-19T23:06:48;100591.28;;;15.74;100.00
63654;BME280;49809;47.418;19.080;2023-09-19T23:10:47;100596.31;;;15.81;100.00
63654;BME280;49809;47.418;19.080;2023-09-19T23:14:37;100607.53;;;15.83;100.00
63654;BME280;49809;47.418;19.080;2023-09-19T23:18:23;100599.78;;;15.81;100.00
63654;BME280;49809;47.418;19.080;2023-09-19T23:21:37;100602.47;;;15.81;100.00
63654;BME280;49809;47.418;19.080;2023-09-19T23:25:07;100607.25;;;15.79;100.00
63654;BME280;49809;47.418;19.080;2023-09-19T23:29:03;100603.06;;;15.73;100.00
63654;BME280;49809;47.418;19.080;2023-09-19T23:33:00;100603.09;;;15.68;100.00
63654;BME280;49809;47.418;19.080;2023-09-19T23:36:25;100605.78;;;15.63;100.00
63654;BME280;49809;47.418;19.080;2023-09-19T23:39:29;100598.88;;;15.57;100.00
63654;BME280;49809;47.418;19.080;2023-09-19T23:42:45;100601.59;;;15.52;100.00
63654;BME280;49809;47.418;19.080;2023-09-19T23:46:21;100600.25;;;15.44;100.00
63654;BME280;49809;47.418;19.080;2023-09-19T23:49:57;100604.31;;;15.37;100.00
63654;BME280;49809;47.418;19.080;2023-09-19T23:53:21;100597.63;;;15.39;100.00
63654;BME280;49809;47.418;19.080;2023-09-19T23:56:59;100597.41;;;15.31;100.00
